sensor_id;sensor_type;location;lat;lon;timestamp;pressure;altitude;pressure_sealevel;temperature;humidity
22582;BME280;47125;48.542;9.052;2022-11-15T00:01:53;95842.22;;;9.73;78.51
22582;BME280;47125;48.542;9.052;2022-11-15T00:11:56;95832.38;;;9.62;79.12
22582;BME280;47125;48.542;9.052;2022-11-15T00:22:00;95819.53;;;9.59;78.81
22582;BME280;47125;48.542;9.052;2022-11-15T00:32:02;95823.72;;;9.55;78.21
22582;BME280;47125;48.542;9.052;2022-11-15T00:42:06;95811.69;;;9.41;78.51
22582;BME280;47125;48.542;9.052;2022-11-15T00:52:09;95807.41;;;9.28;79.13
22582;BME280;47125;48.542;9.052;2022-11-15T01:02:13;95791.66;;;9.27;79.53
22582;BME280;47125;48.542;9.052;2022-11-15T01:12:15;95790.94;;;9.43;78.45
22582;BME280;47125;48.542;9.052;2022-11-15T01:22:19;95796.16;;;9.38;80.08
22582;BME280;47125;48.542;9.052;2022-11-15T01:32:22;95774.84;;;9.38;79.27
22582;BME280;47125;48.542;9.052;2022-11-15T01:42:26;95775.22;;;9.30;80.33
22582;BME280;47125;48.542;9.052;2022-11-15T01:52:29;95764.19;;;9.26;80.60
22582;BME280;47125;48.542;9.052;2022-11-15T02:02:34;95757.50;;;9.24;80.80
22582;BME280;47125;48.542;9.052;2022-11-15T02:12:38;95740.44;;;9.36;80.03
22582;BME280;47125;48.542;9.052;2022-11-15T02:22:45;95737.06;;;9.41;79.49
22582;BME280;47125;48.542;9.052;2022-11-15T02:32:57;95718.22;;;9.31;80.04
22582;BME280;47125;48.542;9.052;2022-11-15T02:43:02;95712.75;;;9.26;79.65
22582;BME280;47125;48.542;9.052;2022-11-15T02:53:25;95706.94;;;9.01;79.74
22582;BME280;47125;48.542;9.052;2022-11-15T03:03:34;95692.34;;;8.92;80.29
22582;BME280;47125;48.542;9.052;2022-11-15T03:13:45;95679.81;;;9.04;80.53
22582;BME280;47125;48.542;9.052;2022-11-15T03:23:51;95678.63;;;9.11;81.40
22582;BME280;47125;48.542;9.052;2022-11-15T03:33:56;95665.31;;;9.11;80.79
22582;BME280;47125;48.542;9.052;2022-11-15T03:44:02;95671.03;;;9.03;81.87
22582;BME280;47125;48.542;9.052;2022-11-15T03:54:08;95663.25;;;9.02;81.65
22582;BME280;47125;48.542;9.052;2022-11-15T04:04:10;95660.38;;;9.03;81.24
22582;BME280;47125;48.542;9.052;2022-11-15T04:14:14;95643.09;;;9.06;80.95
22582;BME280;47125;48.542;9.052;2022-11-15T04:24:17;95648.44;;;9.06;81.20
22582;BME280;47125;48.542;9.052;2022-11-15T04:34:21;95643.91;;;9.06;81.96
22582;BME280;47125;48.542;9.052;2022-11-15T04:44:24;95625.28;;;9.06;82.28
22582;BME280;47125;48.542;9.052;2022-11-15T04:54:27;95620.41;;;9.03;82.59
22582;BME280;47125;48.542;9.052;2022-11-15T05:04:30;95630.03;;;9.04;81.95
22582;BME280;47125;48.542;9.052;2022-11-15T05:14:34;95618.56;;;9.04;82.08
22582;BME280;47125;48.542;9.052;2022-11-15T05:24:36;95609.75;;;9.03;82.15
22582;BME280;47125;48.542;9.052;2022-11-15T05:34:40;95603.53;;;8.98;82.74
22582;BME280;47125;48.542;9.052;2022-11-15T05:44:43;95592.41;;;9.01;82.25
22582;BME280;47125;48.542;9.052;2022-11-15T05:54:54;95592.41;;;9.01;82.10
22582;BME280;47125;48.542;9.052;2022-11-15T06:04:57;95598.44;;;8.96;82.38
22582;BME280;47125;48.542;9.052;2022-11-15T06:15:01;95587.00;;;8.84;82.18
22582;BME280;47125;48.542;9.052;2022-11-15T06:25:04;95605.28;;;8.92;82.41
22582;BME280;47125;48.542;9.052;2022-11-15T06:35:08;95602.91;;;9.07;81.24
22582;BME280;47125;48.542;9.052;2022-11-15T06:45:11;95607.28;;;9.13;80.99
22582;BME280;47125;48.542;9.052;2022-11-15T06:55:15;95607.88;;;9.15;80.66
22582;BME280;47125;48.542;9.052;2022-11-15T07:05:18;95604.00;;;9.23;81.96
22582;BME280;47125;48.542;9.052;2022-11-15T07:15:22;95619.03;;;9.29;81.13
22582;BME280;47125;48.542;9.052;2022-11-15T07:25:25;95613.81;;;9.34;80.65
22582;BME280;47125;48.542;9.052;2022-11-15T07:35:29;95601.63;;;9.38;81.75
22582;BME280;47125;48.542;9.052;2022-11-15T07:45:32;95596.00;;;9.51;82.45
22582;BME280;47125;48.542;9.052;2022-11-15T07:55:37;95600.22;;;9.64;81.89
22582;BME280;47125;48.542;9.052;2022-11-15T08:05:40;95590.84;;;9.78;83.08
22582;BME280;47125;48.542;9.052;2022-11-15T08:15:44;95587.06;;;9.90;82.22
22582;BME280;47125;48.542;9.052;2022-11-15T08:25:46;95585.69;;;10.05;82.27
22582;BME280;47125;48.542;9.052;2022-11-15T08:35:51;95578.19;;;10.18;83.24
22582;BME280;47125;48.542;9.052;2022-11-15T08:45:55;95571.19;;;10.34;81.75
22582;BME280;47125;48.542;9.052;2022-11-15T08:55:59;95555.88;;;10.46;80.56
22582;BME280;47125;48.542;9.052;2022-11-15T09:06:01;95553.50;;;10.66;80.35
22582;BME280;47125;48.542;9.052;2022-11-15T09:16:05;95549.13;;;10.82;79.93
22582;BME280;47125;48.542;9.052;2022-11-15T09:26:08;95555.22;;;10.99;78.42
22582;BME280;47125;48.542;9.052;2022-11-15T09:36:12;95550.03;;;11.14;77.72
22582;BME280;47125;48.542;9.052;2022-11-15T09:46:15;95551.63;;;11.15;78.16
22582;BME280;47125;48.542;9.052;2022-11-15T09:56:21;95539.25;;;11.31;77.02
22582;BME280;47125;48.542;9.052;2022-11-15T10:06:24;95527.06;;;11.45;74.82
22582;BME280;47125;48.542;9.052;2022-11-15T10:26:50;95508.28;;;11.67;76.75
22582;BME280;47125;48.542;9.052;2022-11-15T10:36:55;95497.41;;;11.78;76.44
22582;BME280;47125;48.542;9.052;2022-11-15T10:57:17;95495.13;;;11.92;74.84
22582;BME280;47125;48.542;9.052;2022-11-15T11:07:21;95484.63;;;12.22;76.07
22582;BME280;47125;48.542;9.052;2022-11-15T11:17:29;95466.16;;;12.26;76.13
22582;BME280;47125;48.542;9.052;2022-11-15T11:27:41;95464.44;;;12.61;73.19
22582;BME280;47125;48.542;9.052;2022-11-15T11:37:47;95448.84;;;12.43;74.43
22582;BME280;47125;48.542;9.052;2022-11-15T11:47:52;95432.34;;;12.14;76.44
22582;BME280;47125;48.542;9.052;2022-11-15T11:58:00;95420.03;;;13.01;73.15
22582;BME280;47125;48.542;9.052;2022-11-15T12:08:09;95405.88;;;13.10;72.56
22582;BME280;47125;48.542;9.052;2022-11-15T12:18:19;95397.56;;;13.17;72.97
22582;BME280;47125;48.542;9.052;2022-11-15T12:28:24;95400.78;;;13.14;73.73
22582;BME280;47125;48.542;9.052;2022-11-15T12:38:53;95390.88;;;13.24;73.11
22582;BME280;47125;48.542;9.052;2022-11-15T12:48:56;95378.81;;;13.32;73.05
22582;BME280;47125;48.542;9.052;2022-11-15T12:59:01;95382.28;;;13.48;72.53
22582;BME280;47125;48.542;9.052;2022-11-15T13:09:49;95363.53;;;13.43;72.52
22582;BME280;47125;48.542;9.052;2022-11-15T13:19:29;95347.69;;;13.36;73.11
22582;BME280;47125;48.542;9.052;2022-11-15T13:29:32;95328.66;;;13.43;73.97
22582;BME280;47125;48.542;9.052;2022-11-15T13:39:36;95310.44;;;13.40;73.80
22582;BME280;47125;48.542;9.052;2022-11-15T13:49:39;95276.88;;;13.42;75.30
22582;BME280;47125;48.542;9.052;2022-11-15T13:59:45;95286.47;;;13.58;76.43
22582;BME280;47125;48.542;9.052;2022-11-15T14:09:49;95257.00;;;13.53;76.56
22582;BME280;47125;48.542;9.052;2022-11-15T14:19:53;95254.69;;;12.91;80.10
22582;BME280;47125;48.542;9.052;2022-11-15T14:29:55;95242.34;;;12.90;79.41
22582;BME280;47125;48.542;9.052;2022-11-15T14:39:59;95230.56;;;12.71;80.13
22582;BME280;47125;48.542;9.052;2022-11-15T14:50:02;95217.06;;;13.52;77.28
22582;BME280;47125;48.542;9.052;2022-11-15T15:00:07;95204.19;;;13.49;78.54
22582;BME280;47125;48.542;9.052;2022-11-15T15:10:11;95184.66;;;13.33;78.71
22582;BME280;47125;48.542;9.052;2022-11-15T15:20:35;95196.19;;;13.29;77.48
22582;BME280;47125;48.542;9.052;2022-11-15T15:30:40;95182.50;;;13.35;77.48
22582;BME280;47125;48.542;9.052;2022-11-15T15:40:44;95163.22;;;13.28;77.09
22582;BME280;47125;48.542;9.052;2022-11-15T15:50:46;95159.22;;;13.20;77.81
22582;BME280;47125;48.542;9.052;2022-11-15T16:00:51;95130.28;;;13.17;77.96
22582;BME280;47125;48.542;9.052;2022-11-15T16:10:54;95115.03;;;13.08;77.21
22582;BME280;47125;48.542;9.052;2022-11-15T16:20:58;95107.78;;;13.13;77.04
22582;BME280;47125;48.542;9.052;2022-11-15T16:31:02;95084.19;;;13.10;76.46
22582;BME280;47125;48.542;9.052;2022-11-15T16:41:06;95089.56;;;13.15;76.46
22582;BME280;47125;48.542;9.052;2022-11-15T16:51:09;95090.09;;;13.12;76.93
22582;BME280;47125;48.542;9.052;2022-11-15T17:01:16;95084.19;;;13.10;76.99
22582;BME280;47125;48.542;9.052;2022-11-15T17:11:20;95073.47;;;13.05;77.36
22582;BME280;47125;48.542;9.052;2022-11-15T17:31:35;95052.56;;;12.08;82.84
22582;BME280;47125;48.542;9.052;2022-11-15T17:41:38;95037.31;;;12.08;83.58
22582;BME280;47125;48.542;9.052;2022-11-15T17:51:41;95037.88;;;12.10;83.22
22582;BME280;47125;48.542;9.052;2022-11-15T18:01:50;95032.22;;;12.02;83.95
22582;BME280;47125;48.542;9.052;2022-11-15T18:11:55;95023.66;;;12.05;84.02
22582;BME280;47125;48.542;9.052;2022-11-15T18:21:58;95022.88;;;11.99;84.66
22582;BME280;47125;48.542;9.052;2022-11-15T18:32:03;95031.19;;;12.03;84.33
22582;BME280;47125;48.542;9.052;2022-11-15T18:42:11;95045.34;;;12.08;83.56
22582;BME280;47125;48.542;9.052;2022-11-15T18:52:17;95013.78;;;12.05;84.34
22582;BME280;47125;48.542;9.052;2022-11-15T19:02:19;94987.28;;;12.09;83.06
22582;BME280;47125;48.542;9.052;2022-11-15T19:12:23;94986.50;;;11.98;83.38
22582;BME280;47125;48.542;9.052;2022-11-15T19:22:26;94965.63;;;12.10;82.26
22582;BME280;47125;48.542;9.052;2022-11-15T19:32:30;94952.28;;;11.95;83.46
22582;BME280;47125;48.542;9.052;2022-11-15T19:42:33;94943.72;;;11.88;84.14
22582;BME280;47125;48.542;9.052;2022-11-15T19:52:37;94935.16;;;11.86;84.51
22582;BME280;47125;48.542;9.052;2022-11-15T20:02:39;94920.72;;;11.82;80.42
22582;BME280;47125;48.542;9.052;2022-11-15T20:12:43;94918.56;;;11.84;79.49
22582;BME280;47125;48.542;9.052;2022-11-15T20:22:46;94923.38;;;11.87;79.12
22582;BME280;47125;48.542;9.052;2022-11-15T20:32:49;94907.06;;;11.84;80.63
22582;BME280;47125;48.542;9.052;2022-11-15T20:42:52;94888.63;;;11.82;81.19
22582;BME280;47125;48.542;9.052;2022-11-15T20:52:56;94884.88;;;11.78;82.77
22582;BME280;47125;48.542;9.052;2022-11-15T21:02:59;94876.59;;;11.75;82.39
22582;BME280;47125;48.542;9.052;2022-11-15T21:13:03;94857.88;;;11.80;82.03
22582;BME280;47125;48.542;9.052;2022-11-15T21:23:05;94851.19;;;11.72;82.21
22582;BME280;47125;48.542;9.052;2022-11-15T21:33:12;94848.53;;;11.77;82.05
22582;BME280;47125;48.542;9.052;2022-11-15T21:43:14;94854.41;;;11.74;81.45
22582;BME280;47125;48.542;9.052;2022-11-15T21:53:18;94854.16;;;11.71;79.94
22582;BME280;47125;48.542;9.052;2022-11-15T22:03:21;94841.00;;;11.69;79.75
22582;BME280;47125;48.542;9.052;2022-11-15T22:13:25;94838.63;;;11.68;81.77
22582;BME280;47125;48.542;9.052;2022-11-15T22:23:28;94834.34;;;11.61;82.77
22582;BME280;47125;48.542;9.052;2022-11-15T22:33:32;94840.00;;;11.55;82.80
22582;BME280;47125;48.542;9.052;2022-11-15T22:43:35;94840.00;;;11.55;83.26
22582;BME280;47125;48.542;9.052;2022-11-15T22:53:39;94842.13;;;11.58;83.18
22582;BME280;47125;48.542;9.052;2022-11-15T23:03:42;94835.97;;;11.63;81.89
22582;BME280;47125;48.542;9.052;2022-11-15T23:13:47;94834.63;;;11.60;81.90
22582;BME280;47125;48.542;9.052;2022-11-15T23:23:51;94843.84;;;12.13;79.09
22582;BME280;47125;48.542;9.052;2022-11-15T23:33:55;94831.06;;;11.95;80.59
22582;BME280;47125;48.542;9.052;2022-11-15T23:44:00;94829.72;;;11.97;80.92
22582;BME280;47125;48.542;9.052;2022-11-15T23:54:04;94837.28;;;11.65;82.00
